Time,TemperatureF,DewpointF,PressureIn,WindDirection,WindDirectionDegrees,WindSpeedMPH,WindSpeedGustMPH,Humidity,HourlyPrecipIn,Conditions,Clouds,dailyrainin,SoftwareType,DateUTC
2013-08-10 00:10:00,72.7,71.0,30.03,SSW,199,0.0,0.0,93,0.00,,,0.00,weatherlink.com 1.10,2013-08-10 04:10:00,
2013-08-10 00:25:00,72.4,71.0,30.03,SSW,199,0.0,0.0,94,0.00,,,0.00,weatherlink.com 1.10,2013-08-10 04:25:00,
2013-08-10 00:40:00,72.8,71.0,30.03,SSW,199,0.0,0.0,95,0.00,,,0.00,weatherlink.com 1.10,2013-08-10 04:40:00,
2013-08-10 00:55:00,73.4,72.0,30.03,SSW,205,0.0,0.0,94,0.00,,,0.00,weatherlink.com 1.10,2013-08-10 04:55:00,
2013-08-10 01:10:00,73.9,72.0,30.03,SSW,205,0.0,0.0,94,0.00,,,0.00,weatherlink.com 1.10,2013-08-10 05:10:00,
2013-08-10 01:25:00,74.0,72.0,30.02,SSW,205,0.0,0.0,93,0.00,,,0.00,weatherlink.com 1.10,2013-08-10 05:25:00,
2013-08-10 01:40:00,74.0,72.0,30.03,SSW,205,0.0,0.0,93,0.00,,,0.00,weatherlink.com 1.10,2013-08-10 05:40:00,
2013-08-10 01:55:00,73.9,72.0,30.03,SSW,205,0.0,0.0,93,0.00,,,0.00,weatherlink.com 1.10,2013-08-10 05:55:00,
2013-08-10 02:10:00,74.0,72.0,30.03,SSW,205,0.0,0.0,93,0.00,,,0.00,weatherlink.com 1.10,2013-08-10 06:10:00,
2013-08-10 02:25:00,74.2,72.0,30.02,SSW,205,0.0,0.0,93,0.00,,,0.00,weatherlink.com 1.10,2013-08-10 06:25:00,
2013-08-10 02:40:00,74.2,72.0,30.02,SSW,205,0.0,0.0,93,0.00,,,0.00,weatherlink.com 1.10,2013-08-10 06:40:00,
2013-08-10 02:55:00,73.8,72.0,30.01,SSW,205,0.0,0.0,93,0.00,,,0.00,weatherlink.com 1.10,2013-08-10 06:55:00,
2013-08-10 03:10:00,73.8,72.0,30.01,SSW,205,0.0,0.0,94,0.00,,,0.00,weatherlink.com 1.10,2013-08-10 07:10:00,
2013-08-10 03:25:00,73.3,72.0,30.01,SSW,205,0.0,0.0,94,0.00,,,0.00,weatherlink.com 1.10,2013-08-10 07:25:00,
2013-08-10 03:40:00,73.2,72.0,30.01,SSW,205,0.0,0.0,95,0.00,,,0.00,weatherlink.com 1.10,2013-08-10 07:40:00,
2013-08-10 03:55:00,73.0,71.0,30.02,SSW,205,0.0,0.0,94,0.00,,,0.00,weatherlink.com 1.10,2013-08-10 07:55:00,
2013-08-10 04:10:00,72.4,71.0,30.01,SSW,205,0.0,0.0,94,0.00,,,0.00,weatherlink.com 1.10,2013-08-10 08:10:00,
2013-08-10 04:25:00,72.2,71.0,30.01,SSW,205,0.0,0.0,95,0.00,,,0.00,weatherlink.com 1.10,2013-08-10 08:25:00,
2013-08-10 04:40:00,72.1,71.0,30.01,SSW,205,0.0,0.0,95,0.00,,,0.00,weatherlink.com 1.10,2013-08-10 08:40:00,
2013-08-10 04:56:00,71.7,70.0,30.01,SSW,205,0.0,0.0,95,0.00,,,0.00,weatherlink.com 1.10,2013-08-10 08:56:00,
2013-08-10 05:11:00,72.0,71.0,30.02,SSW,205,0.0,0.0,96,0.00,,,0.00,weatherlink.com 1.10,2013-08-10 09:11:00,
2013-08-10 05:26:00,72.0,71.0,30.01,SSW,205,0.0,0.0,95,0.00,,,0.00,weatherlink.com 1.10,2013-08-10 09:26:00,
2013-08-10 05:41:00,71.5,70.0,30.01,SSW,205,0.0,0.0,95,0.00,,,0.00,weatherlink.com 1.10,2013-08-10 09:41:00,
2013-08-10 05:56:00,71.1,70.0,30.02,SSW,205,0.0,0.0,95,0.00,,,0.00,weatherlink.com 1.10,2013-08-10 09:56:00,
2013-08-10 06:11:00,71.0,70.0,30.02,SSW,205,0.0,0.0,96,0.00,,,0.00,weatherlink.com 1.10,2013-08-10 10:11:00,
2013-08-10 06:26:00,70.9,70.0,30.02,SSW,205,0.0,0.0,96,0.00,,,0.00,weatherlink.com 1.10,2013-08-10 10:26:00,
2013-08-10 06:41:00,71.9,71.0,30.02,SSW,205,0.0,0.0,96,0.00,,,0.00,weatherlink.com 1.10,2013-08-10 10:41:00,
2013-08-10 06:56:00,71.9,71.0,30.03,NW,318,0.0,0.0,96,0.00,,,0.00,weatherlink.com 1.10,2013-08-10 10:56:00,
2013-08-10 07:11:00,71.5,70.0,30.03,NW,317,0.0,0.0,95,0.00,,,0.00,weatherlink.com 1.10,2013-08-10 11:11:00,
2013-08-10 07:26:00,71.7,70.0,30.03,NW,317,0.0,0.0,95,0.00,,,0.00,weatherlink.com 1.10,2013-08-10 11:26:00,
2013-08-10 07:41:00,72.2,71.0,30.03,West,265,0.0,0.0,95,0.00,,,0.00,weatherlink.com 1.10,2013-08-10 11:41:00,
2013-08-10 07:56:00,74.0,73.0,30.04,SW,229,0.0,0.0,96,0.00,,,0.00,weatherlink.com 1.10,2013-08-10 11:56:00,
2013-08-10 08:11:00,74.9,73.0,30.04,WSW,254,0.0,0.0,94,0.00,,,0.00,weatherlink.com 1.10,2013-08-10 12:11:00,
2013-08-10 08:26:00,75.6,74.0,30.04,WSW,256,0.0,0.0,93,0.00,,,0.00,weatherlink.com 1.10,2013-08-10 12:26:00,
2013-08-10 08:41:00,76.3,74.0,30.04,SSW,213,0.0,0.0,92,0.00,,,0.00,weatherlink.com 1.10,2013-08-10 12:41:00,
2013-08-10 08:56:00,77.3,75.0,30.04,SW,220,0.0,0.0,91,0.00,,,0.00,weatherlink.com 1.10,2013-08-10 12:56:00,
2013-08-10 09:11:00,78.3,75.0,30.04,SW,219,0.0,0.0,90,0.00,,,0.00,weatherlink.com 1.10,2013-08-10 13:11:00,
2013-08-10 09:26:00,79.1,75.0,30.05,SW,233,0.0,0.0,88,0.00,,,0.00,weatherlink.com 1.10,2013-08-10 13:26:00,
2013-08-10 09:41:00,79.6,76.0,30.05,WSW,258,0.0,0.0,87,0.00,,,0.00,weatherlink.com 1.10,2013-08-10 13:41:00,
2013-08-10 09:56:00,80.2,75.0,30.04,SW,219,0.0,0.0,85,0.00,,,0.00,weatherlink.com 1.10,2013-08-10 13:56:00,
2013-08-10 10:11:00,81.1,76.0,30.04,SW,229,0.0,0.0,85,0.00,,,0.00,weatherlink.com 1.10,2013-08-10 14:11:00,
2013-08-10 10:26:00,81.7,76.0,30.05,WSW,245,0.0,0.0,83,0.00,,,0.00,weatherlink.com 1.10,2013-08-10 14:26:00,
2013-08-10 10:41:00,81.7,76.0,30.04,SW,223,0.0,0.0,83,0.00,,,0.00,weatherlink.com 1.10,2013-08-10 14:41:00,
2013-08-10 10:56:00,82.3,77.0,30.05,SSE,156,0.0,0.0,84,0.00,,,0.00,weatherlink.com 1.10,2013-08-10 14:56:00,
2013-08-10 11:11:00,82.8,77.0,30.05,SW,226,0.0,0.0,82,0.00,,,0.00,weatherlink.com 1.10,2013-08-10 15:11:00,
2013-08-10 11:26:00,83.5,77.0,30.05,WSW,242,0.0,0.0,81,0.00,,,0.00,weatherlink.com 1.10,2013-08-10 15:26:00,
2013-08-10 11:41:00,84.3,76.0,30.05,SSW,205,0.0,0.0,77,0.00,,,0.00,weatherlink.com 1.10,2013-08-10 15:41:00,
2013-08-10 11:56:00,84.8,75.0,30.05,SSW,207,0.0,0.0,73,0.00,,,0.00,weatherlink.com 1.10,2013-08-10 15:56:00,
2013-08-10 12:11:00,85.3,77.0,30.04,SSE,163,0.0,0.0,75,0.00,,,0.00,weatherlink.com 1.10,2013-08-10 16:11:00,
2013-08-10 12:26:00,86.2,77.0,30.04,West,261,0.0,0.0,73,0.00,,,0.00,weatherlink.com 1.10,2013-08-10 16:26:00,
2013-08-10 12:41:00,86.8,77.0,30.03,SSW,206,0.0,0.0,72,0.00,,,0.00,weatherlink.com 1.10,2013-08-10 16:41:00,
2013-08-10 12:56:00,87.0,73.0,30.02,West,267,0.0,0.0,63,0.00,,,0.00,weatherlink.com 1.10,2013-08-10 16:56:00,
2013-08-10 13:11:00,87.8,76.0,30.02,SSW,211,0.0,0.0,67,0.00,,,0.00,weatherlink.com 1.10,2013-08-10 17:11:00,
2013-08-10 13:27:00,87.5,76.0,30.01,West,271,0.0,0.0,68,0.00,,,0.00,weatherlink.com 1.10,2013-08-10 17:27:00,
2013-08-10 13:42:00,88.2,75.0,30.01,SSW,206,0.0,0.0,64,0.00,,,0.00,weatherlink.com 1.10,2013-08-10 17:42:00,
2013-08-10 13:57:00,88.7,76.0,30.01,SSW,205,0.0,0.0,66,0.00,,,0.00,weatherlink.com 1.10,2013-08-10 17:57:00,
2013-08-10 14:12:00,87.0,74.0,30.01,West,263,0.0,0.0,66,0.00,,,0.00,weatherlink.com 1.10,2013-08-10 18:12:00,
2013-08-10 14:27:00,85.9,76.0,30.01,WSW,255,0.0,0.0,71,0.00,,,0.00,weatherlink.com 1.10,2013-08-10 18:27:00,
2013-08-10 14:42:00,80.7,71.0,30.03,WNW,285,0.0,0.0,73,0.00,,,0.00,weatherlink.com 1.10,2013-08-10 18:42:00,
2013-08-10 14:57:00,74.2,70.0,30.06,SSW,202,0.0,1.0,86,0.00,,,0.00,weatherlink.com 1.10,2013-08-10 18:57:00,
2013-08-10 15:12:00,71.7,69.0,30.06,SSW,213,0.0,0.0,91,0.00,,,0.00,weatherlink.com 1.10,2013-08-10 19:12:00,
2013-08-10 15:27:00,70.6,68.0,30.05,WNW,292,0.0,0.0,92,0.00,,,0.00,weatherlink.com 1.10,2013-08-10 19:27:00,
2013-08-10 15:42:00,70.8,69.0,30.04,ENE,60,0.0,0.0,94,0.00,,,0.00,weatherlink.com 1.10,2013-08-10 19:42:00,
2013-08-10 15:57:00,71.0,69.0,30.03,East,88,0.0,0.0,94,0.00,,,0.00,weatherlink.com 1.10,2013-08-10 19:57:00,
2013-08-10 16:12:00,71.5,70.0,30.03,ENE,68,0.0,0.0,94,0.00,,,0.00,weatherlink.com 1.10,2013-08-10 20:12:00,
2013-08-10 16:27:00,72.3,71.0,30.02,NE,53,0.0,0.0,94,0.00,,,0.00,weatherlink.com 1.10,2013-08-10 20:27:00,
2013-08-10 16:42:00,73.6,72.0,30.02,East,87,0.0,0.0,93,0.00,,,0.00,weatherlink.com 1.10,2013-08-10 20:42:00,
2013-08-10 16:57:00,74.9,73.0,30.02,NW,318,0.0,0.0,92,0.00,,,0.00,weatherlink.com 1.10,2013-08-10 20:57:00,
2013-08-10 17:12:00,75.6,73.0,30.02,WSW,254,0.0,0.0,91,0.00,,,0.00,weatherlink.com 1.10,2013-08-10 21:12:00,
2013-08-10 17:27:00,76.4,74.0,30.02,East,86,0.0,0.0,91,0.00,,,0.00,weatherlink.com 1.10,2013-08-10 21:27:00,
2013-08-10 17:42:00,77.1,74.0,30.02,East,95,0.0,0.0,90,0.00,,,0.00,weatherlink.com 1.10,2013-08-10 21:42:00,
2013-08-10 17:57:00,77.1,74.0,30.02,East,89,0.0,0.0,90,0.00,,,0.00,weatherlink.com 1.10,2013-08-10 21:57:00,
2013-08-10 18:12:00,77.0,74.0,30.03,ENE,59,0.0,0.0,90,0.00,,,0.00,weatherlink.com 1.10,2013-08-10 22:12:00,
2013-08-10 18:27:00,76.9,74.0,30.04,ENE,57,0.0,0.0,91,0.00,,,0.00,weatherlink.com 1.10,2013-08-10 22:27:00,
2013-08-10 18:42:00,76.7,74.0,30.04,NNE,32,0.0,0.0,91,0.00,,,0.00,weatherlink.com 1.10,2013-08-10 22:42:00,
2013-08-10 18:57:00,77.4,74.0,30.04,East,82,0.0,0.0,89,0.00,,,0.00,weatherlink.com 1.10,2013-08-10 22:57:00,
2013-08-10 19:12:00,77.2,74.0,30.05,NNE,30,0.0,0.0,90,0.00,,,0.00,weatherlink.com 1.10,2013-08-10 23:12:00,
2013-08-10 19:27:00,76.6,74.0,30.06,NNW,347,0.0,0.0,90,0.00,,,0.00,weatherlink.com 1.10,2013-08-10 23:27:00,
2013-08-10 19:42:00,75.8,73.0,30.06,ENE,77,0.0,0.0,91,0.00,,,0.00,weatherlink.com 1.10,2013-08-10 23:42:00,
2013-08-10 19:57:00,75.3,73.0,30.05,ENE,77,0.0,0.0,91,0.00,,,0.00,weatherlink.com 1.10,2013-08-10 23:57:00,
2013-08-10 20:12:00,74.6,72.0,30.05,ENE,77,0.0,0.0,92,0.00,,,0.00,weatherlink.com 1.10,2013-08-11 00:12:00,
2013-08-10 20:27:00,74.1,72.0,30.06,WNW,284,0.0,0.0,93,0.00,,,0.00,weatherlink.com 1.10,2013-08-11 00:27:00,
2013-08-10 20:42:00,74.1,72.0,30.08,West,281,0.0,0.0,92,0.00,,,0.00,weatherlink.com 1.10,2013-08-11 00:42:00,
2013-08-10 20:57:00,73.0,69.0,30.06,SW,218,0.0,0.0,86,0.00,,,0.00,weatherlink.com 1.10,2013-08-11 00:57:00,
2013-08-10 21:12:00,71.6,68.0,30.05,South,181,0.0,0.0,89,0.00,,,0.00,weatherlink.com 1.10,2013-08-11 01:12:00,
2013-08-10 21:27:00,70.7,68.0,30.06,SW,219,0.0,0.0,91,0.00,,,0.00,weatherlink.com 1.10,2013-08-11 01:27:00,
2013-08-10 21:42:00,70.3,68.0,30.07,WSW,239,0.0,0.0,93,0.00,,,0.00,weatherlink.com 1.10,2013-08-11 01:42:00,
2013-08-10 21:57:00,70.1,68.0,30.07,West,271,0.0,0.0,94,0.00,,,0.00,weatherlink.com 1.10,2013-08-11 01:57:00,
2013-08-10 22:12:00,70.1,68.0,30.07,WNW,297,0.0,0.0,94,0.00,,,0.00,weatherlink.com 1.10,2013-08-11 02:12:00,
2013-08-10 22:27:00,69.9,68.0,30.07,WNW,297,0.0,0.0,94,0.00,,,0.00,weatherlink.com 1.10,2013-08-11 02:27:00,
2013-08-10 22:42:00,69.7,68.0,30.07,SSE,165,0.0,0.0,95,0.00,,,0.00,weatherlink.com 1.10,2013-08-11 02:42:00,
2013-08-10 23:12:00,69.4,68.0,30.06,SSE,165,0.0,0.0,95,0.00,,,0.00,weatherlink.com 1.10,2013-08-11 03:12:00,
2013-08-10 23:27:00,69.5,68.0,30.06,SSE,165,0.0,0.0,95,0.00,,,0.00,weatherlink.com 1.10,2013-08-11 03:27:00,
2013-08-10 23:42:00,69.5,68.0,30.06,SSE,165,0.0,0.0,95,0.00,,,0.00,weatherlink.com 1.10,2013-08-11 03:42:00,
2013-08-10 23:57:00,69.5,68.0,30.05,SSE,165,0.0,0.0,96,0.00,,,0.00,weatherlink.com 1.10,2013-08-11 03:57:00,